sensor_id;sensor_type;location;lat;lon;timestamp;P1;durP1;ratioP1;P2;durP2;ratioP2
10122;SDS011;5101;49.038;8.710;2022-09-01T00:01:36;6.45;;;5.85;;
10122;SDS011;5101;49.038;8.710;2022-09-01T00:04:06;6.10;;;5.50;;
10122;SDS011;5101;49.038;8.710;2022-09-01T00:06:34;6.93;;;5.85;;
10122;SDS011;5101;49.038;8.710;2022-09-01T00:09:02;5.88;;;5.47;;
10122;SDS011;5101;49.038;8.710;2022-09-01T00:11:30;7.03;;;6.43;;
10122;SDS011;5101;49.038;8.710;2022-09-01T00:13:56;5.80;;;5.30;;
10122;SDS011;5101;49.038;8.710;2022-09-01T00:16:23;6.57;;;5.28;;
10122;SDS011;5101;49.038;8.710;2022-09-01T00:18:51;5.25;;;4.70;;
10122;SDS011;5101;49.038;8.710;2022-09-01T00:21:19;4.68;;;4.22;;
10122;SDS011;5101;49.038;8.710;2022-09-01T00:23:47;4.70;;;4.07;;
10122;SDS011;5101;49.038;8.710;2022-09-01T00:26:13;6.05;;;4.25;;
10122;SDS011;5101;49.038;8.710;2022-09-01T00:28:39;5.30;;;4.00;;
10122;SDS011;5101;49.038;8.710;2022-09-01T00:31:04;4.68;;;4.15;;
10122;SDS011;5101;49.038;8.710;2022-09-01T00:33:31;4.28;;;3.78;;
10122;SDS011;5101;49.038;8.710;2022-09-01T00:35:57;4.40;;;4.05;;
10122;SDS011;5101;49.038;8.710;2022-09-01T00:38:23;4.70;;;4.20;;
10122;SDS011;5101;49.038;8.710;2022-09-01T00:40:49;4.15;;;3.85;;
10122;SDS011;5101;49.038;8.710;2022-09-01T00:43:38;4.00;;;3.80;;
10122;SDS011;5101;49.038;8.710;2022-09-01T00:46:07;4.32;;;4.03;;
10122;SDS011;5101;49.038;8.710;2022-09-01T00:48:34;5.90;;;4.22;;
10122;SDS011;5101;49.038;8.710;2022-09-01T00:51:00;4.70;;;4.30;;
10122;SDS011;5101;49.038;8.710;2022-09-01T00:53:27;4.20;;;3.90;;
10122;SDS011;5101;49.038;8.710;2022-09-01T00:55:53;4.32;;;4.03;;
10122;SDS011;5101;49.038;8.710;2022-09-01T00:58:19;5.72;;;4.15;;
10122;SDS011;5101;49.038;8.710;2022-09-01T01:00:45;4.63;;;4.22;;
10122;SDS011;5101;49.038;8.710;2022-09-01T01:03:13;5.38;;;4.53;;
10122;SDS011;5101;49.038;8.710;2022-09-01T01:05:42;4.40;;;4.05;;
10122;SDS011;5101;49.038;8.710;2022-09-01T01:08:18;4.22;;;3.88;;
10122;SDS011;5101;49.038;8.710;2022-09-01T01:10:55;6.15;;;4.03;;
10122;SDS011;5101;49.038;8.710;2022-09-01T01:13:20;6.05;;;4.40;;
10122;SDS011;5101;49.038;8.710;2022-09-01T01:15:49;4.43;;;4.00;;
10122;SDS011;5101;49.038;8.710;2022-09-01T01:18:15;5.20;;;4.28;;
10122;SDS011;5101;49.038;8.710;2022-09-01T01:20:41;5.25;;;4.75;;
10122;SDS011;5101;49.038;8.710;2022-09-01T01:23:38;7.13;;;4.55;;
10122;SDS011;5101;49.038;8.710;2022-09-01T01:26:09;4.97;;;4.50;;
10122;SDS011;5101;49.038;8.710;2022-09-01T01:28:37;5.22;;;4.80;;
10122;SDS011;5101;49.038;8.710;2022-09-01T01:31:08;5.10;;;4.60;;
10122;SDS011;5101;49.038;8.710;2022-09-01T01:33:47;5.03;;;4.63;;
10122;SDS011;5101;49.038;8.710;2022-09-01T01:36:21;5.35;;;4.85;;
10122;SDS011;5101;49.038;8.710;2022-09-01T01:39:05;6.85;;;4.28;;
10122;SDS011;5101;49.038;8.710;2022-09-01T01:41:34;5.07;;;4.53;;
10122;SDS011;5101;49.038;8.710;2022-09-01T01:44:06;5.05;;;4.57;;
10122;SDS011;5101;49.038;8.710;2022-09-01T01:46:33;4.68;;;4.28;;
10122;SDS011;5101;49.038;8.710;2022-09-01T01:49:00;4.95;;;4.65;;
10122;SDS011;5101;49.038;8.710;2022-09-01T01:51:27;5.68;;;4.93;;
10122;SDS011;5101;49.038;8.710;2022-09-01T01:53:55;5.70;;;5.15;;
10122;SDS011;5101;49.038;8.710;2022-09-01T01:56:23;5.75;;;5.25;;
10122;SDS011;5101;49.038;8.710;2022-09-01T01:58:50;5.47;;;4.97;;
10122;SDS011;5101;49.038;8.710;2022-09-01T02:01:23;5.65;;;5.10;;
10122;SDS011;5101;49.038;8.710;2022-09-01T02:03:52;6.15;;;5.53;;
10122;SDS011;5101;49.038;8.710;2022-09-01T02:06:20;8.10;;;5.40;;
10122;SDS011;5101;49.038;8.710;2022-09-01T02:08:49;5.63;;;4.80;;
10122;SDS011;5101;49.038;8.710;2022-09-01T02:11:16;6.10;;;5.10;;
10122;SDS011;5101;49.038;8.710;2022-09-01T02:13:42;5.55;;;5.05;;
10122;SDS011;5101;49.038;8.710;2022-09-01T02:16:09;5.38;;;4.97;;
10122;SDS011;5101;49.038;8.710;2022-09-01T02:18:37;5.65;;;5.10;;
10122;SDS011;5101;49.038;8.710;2022-09-01T02:21:12;6.47;;;5.03;;
10122;SDS011;5101;49.038;8.710;2022-09-01T02:23:43;5.18;;;4.78;;
10122;SDS011;5101;49.038;8.710;2022-09-01T02:26:09;5.65;;;5.05;;
10122;SDS011;5101;49.038;8.710;2022-09-01T02:28:36;5.95;;;4.93;;
10122;SDS011;5101;49.038;8.710;2022-09-01T02:31:06;5.72;;;5.22;;
10122;SDS011;5101;49.038;8.710;2022-09-01T02:33:33;6.32;;;5.20;;
10122;SDS011;5101;49.038;8.710;2022-09-01T02:36:01;8.48;;;5.50;;
10122;SDS011;5101;49.038;8.710;2022-09-01T02:38:37;6.13;;;5.50;;
10122;SDS011;5101;49.038;8.710;2022-09-01T02:41:06;5.88;;;5.38;;
10122;SDS011;5101;49.038;8.710;2022-09-01T02:43:32;6.70;;;6.00;;
10122;SDS011;5101;49.038;8.710;2022-09-01T02:45:59;6.43;;;5.57;;
10122;SDS011;5101;49.038;8.710;2022-09-01T02:48:31;6.40;;;5.80;;
10122;SDS011;5101;49.038;8.710;2022-09-01T02:51:00;6.28;;;5.78;;
10122;SDS011;5101;49.038;8.710;2022-09-01T02:53:31;8.40;;;6.13;;
10122;SDS011;5101;49.038;8.710;2022-09-01T02:56:01;6.25;;;5.75;;
10122;SDS011;5101;49.038;8.710;2022-09-01T02:58:28;6.90;;;6.20;;
10122;SDS011;5101;49.038;8.710;2022-09-01T03:01:04;6.68;;;6.03;;
10122;SDS011;5101;49.038;8.710;2022-09-01T03:03:36;7.75;;;6.90;;
10122;SDS011;5101;49.038;8.710;2022-09-01T03:06:01;7.15;;;6.47;;
10122;SDS011;5101;49.038;8.710;2022-09-01T03:08:33;6.63;;;6.03;;
10122;SDS011;5101;49.038;8.710;2022-09-01T03:11:00;7.15;;;6.55;;
10122;SDS011;5101;49.038;8.710;2022-09-01T03:13:26;7.00;;;6.40;;
10122;SDS011;5101;49.038;8.710;2022-09-01T03:15:53;7.60;;;6.88;;
10122;SDS011;5101;49.038;8.710;2022-09-01T03:18:18;9.40;;;6.93;;
10122;SDS011;5101;49.038;8.710;2022-09-01T03:20:44;7.05;;;6.28;;
10122;SDS011;5101;49.038;8.710;2022-09-01T03:23:12;7.18;;;6.68;;
10122;SDS011;5101;49.038;8.710;2022-09-01T03:25:41;7.60;;;6.80;;
10122;SDS011;5101;49.038;8.710;2022-09-01T03:28:08;8.73;;;6.95;;
10122;SDS011;5101;49.038;8.710;2022-09-01T03:30:34;7.28;;;6.57;;
10122;SDS011;5101;49.038;8.710;2022-09-01T03:33:03;8.15;;;7.45;;
10122;SDS011;5101;49.038;8.710;2022-09-01T03:35:29;8.35;;;7.00;;
10122;SDS011;5101;49.038;8.710;2022-09-01T03:37:56;7.78;;;7.07;;
10122;SDS011;5101;49.038;8.710;2022-09-01T03:40:23;8.63;;;7.72;;
10122;SDS011;5101;49.038;8.710;2022-09-01T03:42:51;9.02;;;7.53;;
10122;SDS011;5101;49.038;8.710;2022-09-01T03:45:18;7.50;;;6.65;;
10122;SDS011;5101;49.038;8.710;2022-09-01T03:47:44;7.20;;;6.55;;
10122;SDS011;5101;49.038;8.710;2022-09-01T03:50:15;7.82;;;7.22;;
10122;SDS011;5101;49.038;8.710;2022-09-01T03:52:50;7.93;;;7.25;;
10122;SDS011;5101;49.038;8.710;2022-09-01T03:55:19;7.82;;;7.13;;
10122;SDS011;5101;49.038;8.710;2022-09-01T03:57:48;7.72;;;7.07;;
10122;SDS011;5101;49.038;8.710;2022-09-01T04:00:16;9.73;;;7.53;;
10122;SDS011;5101;49.038;8.710;2022-09-01T04:02:44;8.27;;;7.57;;
10122;SDS011;5101;49.038;8.710;2022-09-01T04:05:12;8.65;;;7.85;;
10122;SDS011;5101;49.038;8.710;2022-09-01T04:07:37;8.32;;;7.53;;
10122;SDS011;5101;49.038;8.710;2022-09-01T04:10:03;8.57;;;7.75;;
10122;SDS011;5101;49.038;8.710;2022-09-01T04:12:29;8.35;;;7.50;;
10122;SDS011;5101;49.038;8.710;2022-09-01T04:14:55;8.55;;;7.55;;
10122;SDS011;5101;49.038;8.710;2022-09-01T04:17:21;8.35;;;7.65;;
10122;SDS011;5101;49.038;8.710;2022-09-01T04:20:05;8.07;;;7.47;;
10122;SDS011;5101;49.038;8.710;2022-09-01T04:22:33;9.15;;;8.43;;
10122;SDS011;5101;49.038;8.710;2022-09-01T04:25:01;9.75;;;8.90;;
10122;SDS011;5101;49.038;8.710;2022-09-01T04:27:27;9.95;;;9.15;;
10122;SDS011;5101;49.038;8.710;2022-09-01T04:29:53;9.80;;;8.80;;
10122;SDS011;5101;49.038;8.710;2022-09-01T04:32:20;9.27;;;8.48;;
10122;SDS011;5101;49.038;8.710;2022-09-01T04:34:48;10.05;;;8.93;;
10122;SDS011;5101;49.038;8.710;2022-09-01T04:37:17;10.05;;;9.05;;
10122;SDS011;5101;49.038;8.710;2022-09-01T04:39:52;9.38;;;8.57;;
10122;SDS011;5101;49.038;8.710;2022-09-01T04:42:19;9.98;;;9.18;;
10122;SDS011;5101;49.038;8.710;2022-09-01T04:44:48;9.93;;;9.02;;
10122;SDS011;5101;49.038;8.710;2022-09-01T04:47:14;9.90;;;9.05;;
10122;SDS011;5101;49.038;8.710;2022-09-01T04:49:43;10.02;;;9.15;;
10122;SDS011;5101;49.038;8.710;2022-09-01T04:52:12;10.05;;;9.05;;
10122;SDS011;5101;49.038;8.710;2022-09-01T04:54:38;10.00;;;9.20;;
10122;SDS011;5101;49.038;8.710;2022-09-01T04:57:04;11.75;;;10.55;;
10122;SDS011;5101;49.038;8.710;2022-09-01T04:59:31;10.25;;;9.25;;
10122;SDS011;5101;49.038;8.710;2022-09-01T05:01:57;10.43;;;9.40;;
10122;SDS011;5101;49.038;8.710;2022-09-01T05:04:25;10.57;;;9.70;;
10122;SDS011;5101;49.038;8.710;2022-09-01T05:06:56;11.73;;;10.10;;
10122;SDS011;5101;49.038;8.710;2022-09-01T05:09:28;11.23;;;9.88;;
10122;SDS011;5101;49.038;8.710;2022-09-01T05:11:56;9.88;;;9.07;;
10122;SDS011;5101;49.038;8.710;2022-09-01T05:14:25;10.18;;;9.27;;
10122;SDS011;5101;49.038;8.710;2022-09-01T05:16:55;11.75;;;10.60;;
10122;SDS011;5101;49.038;8.710;2022-09-01T05:19:26;11.05;;;10.13;;
10122;SDS011;5101;49.038;8.710;2022-09-01T05:21:53;10.98;;;9.95;;
10122;SDS011;5101;49.038;8.710;2022-09-01T05:24:21;10.98;;;9.98;;
10122;SDS011;5101;49.038;8.710;2022-09-01T05:26:54;12.07;;;10.95;;
10122;SDS011;5101;49.038;8.710;2022-09-01T05:29:20;11.85;;;10.32;;
10122;SDS011;5101;49.038;8.710;2022-09-01T05:31:46;11.55;;;10.38;;
10122;SDS011;5101;49.038;8.710;2022-09-01T05:34:13;11.77;;;10.77;;
10122;SDS011;5101;49.038;8.710;2022-09-01T05:36:50;11.35;;;10.30;;
10122;SDS011;5101;49.038;8.710;2022-09-01T05:39:17;12.10;;;10.85;;
10122;SDS011;5101;49.038;8.710;2022-09-01T05:41:43;11.45;;;10.45;;
10122;SDS011;5101;49.038;8.710;2022-09-01T05:44:09;12.57;;;11.30;;
10122;SDS011;5101;49.038;8.710;2022-09-01T05:46:36;13.15;;;11.95;;
10122;SDS011;5101;49.038;8.710;2022-09-01T05:49:04;13.10;;;11.80;;
10122;SDS011;5101;49.038;8.710;2022-09-01T05:51:31;12.75;;;11.45;;
10122;SDS011;5101;49.038;8.710;2022-09-01T05:53:58;13.38;;;12.10;;
10122;SDS011;5101;49.038;8.710;2022-09-01T05:56:27;12.57;;;11.27;;
10122;SDS011;5101;49.038;8.710;2022-09-01T05:58:54;13.18;;;11.98;;
10122;SDS011;5101;49.038;8.710;2022-09-01T06:01:24;15.95;;;13.45;;
10122;SDS011;5101;49.038;8.710;2022-09-01T06:03:55;13.13;;;11.88;;
10122;SDS011;5101;49.038;8.710;2022-09-01T06:06:26;13.07;;;11.98;;
10122;SDS011;5101;49.038;8.710;2022-09-01T06:08:54;13.00;;;11.75;;
10122;SDS011;5101;49.038;8.710;2022-09-01T06:11:24;12.65;;;11.45;;
10122;SDS011;5101;49.038;8.710;2022-09-01T06:13:50;12.45;;;11.15;;
10122;SDS011;5101;49.038;8.710;2022-09-01T06:16:20;13.43;;;12.23;;
10122;SDS011;5101;49.038;8.710;2022-09-01T06:18:48;13.55;;;12.13;;
10122;SDS011;5101;49.038;8.710;2022-09-01T06:21:16;12.57;;;11.48;;
10122;SDS011;5101;49.038;8.710;2022-09-01T06:23:43;11.77;;;10.60;;
10122;SDS011;5101;49.038;8.710;2022-09-01T06:26:19;12.10;;;10.90;;
10122;SDS011;5101;49.038;8.710;2022-09-01T06:28:47;11.02;;;10.07;;
10122;SDS011;5101;49.038;8.710;2022-09-01T06:31:18;10.98;;;10.00;;
10122;SDS011;5101;49.038;8.710;2022-09-01T06:33:48;11.05;;;9.95;;
10122;SDS011;5101;49.038;8.710;2022-09-01T06:36:22;13.25;;;9.75;;
10122;SDS011;5101;49.038;8.710;2022-09-01T06:38:51;10.82;;;9.73;;
10122;SDS011;5101;49.038;8.710;2022-09-01T06:41:19;10.68;;;9.63;;
10122;SDS011;5101;49.038;8.710;2022-09-01T06:43:46;10.48;;;9.57;;
10122;SDS011;5101;49.038;8.710;2022-09-01T06:46:13;10.90;;;9.85;;
10122;SDS011;5101;49.038;8.710;2022-09-01T06:48:40;10.05;;;9.20;;
10122;SDS011;5101;49.038;8.710;2022-09-01T06:51:10;11.10;;;10.02;;
10122;SDS011;5101;49.038;8.710;2022-09-01T06:53:38;11.20;;;10.20;;
10122;SDS011;5101;49.038;8.710;2022-09-01T06:56:05;10.20;;;9.30;;
10122;SDS011;5101;49.038;8.710;2022-09-01T06:58:32;10.57;;;9.57;;
10122;SDS011;5101;49.038;8.710;2022-09-01T07:01:03;9.93;;;9.07;;
10122;SDS011;5101;49.038;8.710;2022-09-01T07:03:30;11.52;;;10.48;;
10122;SDS011;5101;49.038;8.710;2022-09-01T07:05:57;11.05;;;10.10;;
10122;SDS011;5101;49.038;8.710;2022-09-01T07:08:23;10.52;;;9.57;;
10122;SDS011;5101;49.038;8.710;2022-09-01T07:10:50;9.88;;;9.07;;
10122;SDS011;5101;49.038;8.710;2022-09-01T07:13:19;9.75;;;8.93;;
10122;SDS011;5101;49.038;8.710;2022-09-01T07:15:50;9.50;;;8.70;;
10122;SDS011;5101;49.038;8.710;2022-09-01T07:18:21;8.85;;;8.05;;
10122;SDS011;5101;49.038;8.710;2022-09-01T07:20:51;8.35;;;7.65;;
10122;SDS011;5101;49.038;8.710;2022-09-01T07:23:18;7.97;;;7.28;;
10122;SDS011;5101;49.038;8.710;2022-09-01T07:25:45;7.05;;;6.50;;
10122;SDS011;5101;49.038;8.710;2022-09-01T07:28:13;7.72;;;6.93;;
10122;SDS011;5101;49.038;8.710;2022-09-01T07:30:41;7.00;;;6.50;;
10122;SDS011;5101;49.038;8.710;2022-09-01T07:33:09;6.93;;;6.28;;
10122;SDS011;5101;49.038;8.710;2022-09-01T07:35:39;6.38;;;5.78;;
10122;SDS011;5101;49.038;8.710;2022-09-01T07:38:07;6.75;;;6.03;;
10122;SDS011;5101;49.038;8.710;2022-09-01T07:40:37;6.70;;;6.10;;
10122;SDS011;5101;49.038;8.710;2022-09-01T07:43:04;7.35;;;6.75;;
10122;SDS011;5101;49.038;8.710;2022-09-01T07:45:32;6.20;;;5.70;;
10122;SDS011;5101;49.038;8.710;2022-09-01T07:47:59;6.90;;;6.40;;
10122;SDS011;5101;49.038;8.710;2022-09-01T07:50:30;5.97;;;5.57;;
10122;SDS011;5101;49.038;8.710;2022-09-01T07:52:56;6.35;;;5.85;;
10122;SDS011;5101;49.038;8.710;2022-09-01T07:55:22;5.80;;;5.30;;
10122;SDS011;5101;49.038;8.710;2022-09-01T07:57:47;5.93;;;5.53;;
10122;SDS011;5101;49.038;8.710;2022-09-01T08:00:13;7.40;;;6.70;;
10122;SDS011;5101;49.038;8.710;2022-09-01T08:02:40;6.40;;;5.80;;
10122;SDS011;5101;49.038;8.710;2022-09-01T08:05:09;6.15;;;5.50;;
10122;SDS011;5101;49.038;8.710;2022-09-01T08:07:37;5.80;;;5.22;;
10122;SDS011;5101;49.038;8.710;2022-09-01T08:10:04;5.25;;;4.85;;
10122;SDS011;5101;49.038;8.710;2022-09-01T08:12:31;5.88;;;5.38;;
10122;SDS011;5101;49.038;8.710;2022-09-01T08:14:57;5.15;;;4.75;;
10122;SDS011;5101;49.038;8.710;2022-09-01T08:17:23;4.75;;;4.43;;
10122;SDS011;5101;49.038;8.710;2022-09-01T08:19:48;5.65;;;5.25;;
10122;SDS011;5101;49.038;8.710;2022-09-01T08:22:14;4.70;;;4.40;;
10122;SDS011;5101;49.038;8.710;2022-09-01T08:24:40;5.35;;;4.93;;
10122;SDS011;5101;49.038;8.710;2022-09-01T08:27:06;4.90;;;4.60;;
10122;SDS011;5101;49.038;8.710;2022-09-01T08:29:32;4.53;;;4.18;;
10122;SDS011;5101;49.038;8.710;2022-09-01T08:31:58;4.68;;;4.28;;
10122;SDS011;5101;49.038;8.710;2022-09-01T08:34:24;4.85;;;4.47;;
10122;SDS011;5101;49.038;8.710;2022-09-01T08:36:50;4.10;;;3.88;;
10122;SDS011;5101;49.038;8.710;2022-09-01T08:39:16;5.47;;;5.07;;
10122;SDS011;5101;49.038;8.710;2022-09-01T08:47:00;4.65;;;4.35;;
10122;SDS011;5101;49.038;8.710;2022-09-01T08:49:32;5.13;;;4.72;;
10122;SDS011;5101;49.038;8.710;2022-09-01T08:54:53;6.00;;;5.57;;
10122;SDS011;5101;49.038;8.710;2022-09-01T08:57:34;6.10;;;5.70;;
10122;SDS011;5101;49.038;8.710;2022-09-01T09:00:06;6.85;;;6.22;;
10122;SDS011;5101;49.038;8.710;2022-09-01T09:02:38;6.90;;;5.82;;
10122;SDS011;5101;49.038;8.710;2022-09-01T09:05:34;5.45;;;4.97;;
10122;SDS011;5101;49.038;8.710;2022-09-01T09:09:00;5.90;;;5.38;;
10122;SDS011;5101;49.038;8.710;2022-09-01T09:14:32;5.72;;;5.38;;
10122;SDS011;5101;49.038;8.710;2022-09-01T09:17:10;5.28;;;4.93;;
10122;SDS011;5101;49.038;8.710;2022-09-01T09:19:40;5.28;;;4.80;;
10122;SDS011;5101;49.038;8.710;2022-09-01T09:22:09;4.55;;;4.25;;
10122;SDS011;5101;49.038;8.710;2022-09-01T09:24:50;5.10;;;4.70;;
10122;SDS011;5101;49.038;8.710;2022-09-01T09:29:56;4.97;;;4.57;;
10122;SDS011;5101;49.038;8.710;2022-09-01T09:32:22;4.72;;;4.40;;
10122;SDS011;5101;49.038;8.710;2022-09-01T09:34:50;4.70;;;4.25;;
10122;SDS011;5101;49.038;8.710;2022-09-01T09:37:23;4.70;;;4.30;;
10122;SDS011;5101;49.038;8.710;2022-09-01T09:42:40;4.13;;;3.60;;
10122;SDS011;5101;49.038;8.710;2022-09-01T09:45:22;5.65;;;3.70;;
10122;SDS011;5101;49.038;8.710;2022-09-01T09:48:03;3.65;;;3.35;;
10122;SDS011;5101;49.038;8.710;2022-09-01T09:50:49;3.35;;;3.15;;
10122;SDS011;5101;49.038;8.710;2022-09-01T09:53:16;3.75;;;3.55;;
10122;SDS011;5101;49.038;8.710;2022-09-01T09:58:37;3.88;;;3.67;;
10122;SDS011;5101;49.038;8.710;2022-09-01T10:01:06;3.75;;;3.40;;
10122;SDS011;5101;49.038;8.710;2022-09-01T10:03:36;3.60;;;3.40;;
10122;SDS011;5101;49.038;8.710;2022-09-01T10:06:07;3.33;;;3.13;;
10122;SDS011;5101;49.038;8.710;2022-09-01T10:08:36;5.03;;;2.63;;
10122;SDS011;5101;49.038;8.710;2022-09-01T10:11:08;12.65;;;6.80;;
10122;SDS011;5101;49.038;8.710;2022-09-01T10:13:37;4.47;;;3.28;;
10122;SDS011;5101;49.038;8.710;2022-09-01T10:16:04;3.33;;;3.13;;
10122;SDS011;5101;49.038;8.710;2022-09-01T10:18:40;3.40;;;3.03;;
10122;SDS011;5101;49.038;8.710;2022-09-01T10:21:11;4.88;;;3.92;;
10122;SDS011;5101;49.038;8.710;2022-09-01T10:23:40;3.38;;;3.10;;
10122;SDS011;5101;49.038;8.710;2022-09-01T10:26:14;3.55;;;3.35;;
10122;SDS011;5101;49.038;8.710;2022-09-01T10:28:45;3.60;;;3.30;;
10122;SDS011;5101;49.038;8.710;2022-09-01T10:31:25;3.38;;;3.17;;
10122;SDS011;5101;49.038;8.710;2022-09-01T10:33:52;3.35;;;3.15;;
10122;SDS011;5101;49.038;8.710;2022-09-01T10:36:19;4.13;;;3.05;;
10122;SDS011;5101;49.038;8.710;2022-09-01T10:38:46;3.00;;;2.80;;
10122;SDS011;5101;49.038;8.710;2022-09-01T10:41:41;3.20;;;3.00;;
10122;SDS011;5101;49.038;8.710;2022-09-01T10:46:59;4.15;;;3.13;;
10122;SDS011;5101;49.038;8.710;2022-09-01T10:51:51;3.10;;;2.90;;
10122;SDS011;5101;49.038;8.710;2022-09-01T10:54:47;3.35;;;3.10;;
10122;SDS011;5101;49.038;8.710;2022-09-01T10:57:10;4.60;;;2.95;;
10122;SDS011;5101;49.038;8.710;2022-09-01T11:00:19;3.08;;;2.88;;
10122;SDS011;5101;49.038;8.710;2022-09-01T11:13:48;3.15;;;2.95;;
10122;SDS011;5101;49.038;8.710;2022-09-01T11:22:08;2.67;;;2.58;;
10122;SDS011;5101;49.038;8.710;2022-09-01T11:30:16;2.40;;;2.30;;
10122;SDS011;5101;49.038;8.710;2022-09-01T11:33:10;2.33;;;2.22;;
10122;SDS011;5101;49.038;8.710;2022-09-01T11:35:49;2.78;;;2.30;;
10122;SDS011;5101;49.038;8.710;2022-09-01T11:38:42;2.42;;;2.28;;
10122;SDS011;5101;49.038;8.710;2022-09-01T11:43:48;2.20;;;2.10;;
10122;SDS011;5101;49.038;8.710;2022-09-01T11:46:24;4.18;;;2.35;;
10122;SDS011;5101;49.038;8.710;2022-09-01T11:48:51;2.40;;;2.20;;
10122;SDS011;5101;49.038;8.710;2022-09-01T11:51:18;2.75;;;2.25;;
10122;SDS011;5101;49.038;8.710;2022-09-01T11:53:45;1.95;;;1.85;;
10122;SDS011;5101;49.038;8.710;2022-09-01T11:56:23;2.08;;;1.98;;
10122;SDS011;5101;49.038;8.710;2022-09-01T11:58:50;1.90;;;1.80;;
10122;SDS011;5101;49.038;8.710;2022-09-01T12:01:20;5.60;;;2.28;;
10122;SDS011;5101;49.038;8.710;2022-09-01T12:04:16;3.10;;;1.92;;
10122;SDS011;5101;49.038;8.710;2022-09-01T12:06:58;2.20;;;2.00;;
10122;SDS011;5101;49.038;8.710;2022-09-01T12:09:37;1.80;;;1.60;;
10122;SDS011;5101;49.038;8.710;2022-09-01T12:14:56;2.53;;;1.58;;
10122;SDS011;5101;49.038;8.710;2022-09-01T12:17:27;2.13;;;1.60;;
10122;SDS011;5101;49.038;8.710;2022-09-01T12:19:52;2.15;;;1.95;;
10122;SDS011;5101;49.038;8.710;2022-09-01T12:22:19;1.58;;;1.48;;
10122;SDS011;5101;49.038;8.710;2022-09-01T12:24:48;2.45;;;1.70;;
10122;SDS011;5101;49.038;8.710;2022-09-01T12:27:15;2.10;;;1.42;;
10122;SDS011;5101;49.038;8.710;2022-09-01T12:29:41;1.50;;;1.30;;
10122;SDS011;5101;49.038;8.710;2022-09-01T12:32:07;1.30;;;1.20;;
10122;SDS011;5101;49.038;8.710;2022-09-01T12:37:21;1.70;;;1.60;;
10122;SDS011;5101;49.038;8.710;2022-09-01T12:39:53;1.98;;;1.58;;
10122;SDS011;5101;49.038;8.710;2022-09-01T12:44:50;1.30;;;1.30;;
10122;SDS011;5101;49.038;8.710;2022-09-01T12:52:32;1.40;;;1.33;;
10122;SDS011;5101;49.038;8.710;2022-09-01T13:00:05;1.48;;;1.42;;
10122;SDS011;5101;49.038;8.710;2022-09-01T13:02:33;1.90;;;1.80;;
10122;SDS011;5101;49.038;8.710;2022-09-01T13:07:55;2.22;;;1.67;;
10122;SDS011;5101;49.038;8.710;2022-09-01T13:10:33;1.60;;;1.50;;
10122;SDS011;5101;49.038;8.710;2022-09-01T13:13:02;2.00;;;1.52;;
10122;SDS011;5101;49.038;8.710;2022-09-01T13:15:28;2.38;;;1.58;;
10122;SDS011;5101;49.038;8.710;2022-09-01T13:17:57;1.50;;;1.42;;
10122;SDS011;5101;49.038;8.710;2022-09-01T13:20:23;1.60;;;1.50;;
10122;SDS011;5101;49.038;8.710;2022-09-01T13:22:49;1.38;;;1.38;;
10122;SDS011;5101;49.038;8.710;2022-09-01T13:25:15;2.30;;;1.67;;
10122;SDS011;5101;49.038;8.710;2022-09-01T13:27:44;1.40;;;1.30;;
10122;SDS011;5101;49.038;8.710;2022-09-01T13:30:12;1.30;;;1.20;;
10122;SDS011;5101;49.038;8.710;2022-09-01T13:32:39;1.52;;;1.42;;
10122;SDS011;5101;49.038;8.710;2022-09-01T13:35:06;3.00;;;1.63;;
10122;SDS011;5101;49.038;8.710;2022-09-01T13:37:32;3.28;;;1.40;;
10122;SDS011;5101;49.038;8.710;2022-09-01T13:39:58;1.95;;;1.85;;
10122;SDS011;5101;49.038;8.710;2022-09-01T13:42:23;2.08;;;1.70;;
10122;SDS011;5101;49.038;8.710;2022-09-01T13:44:49;1.75;;;1.65;;
10122;SDS011;5101;49.038;8.710;2022-09-01T13:47:14;1.95;;;1.80;;
10122;SDS011;5101;49.038;8.710;2022-09-01T13:49:40;1.70;;;1.60;;
10122;SDS011;5101;49.038;8.710;2022-09-01T13:52:06;1.60;;;1.50;;
10122;SDS011;5101;49.038;8.710;2022-09-01T13:54:31;2.22;;;1.98;;
10122;SDS011;5101;49.038;8.710;2022-09-01T13:56:57;1.77;;;1.67;;
10122;SDS011;5101;49.038;8.710;2022-09-01T13:59:22;2.10;;;1.90;;
10122;SDS011;5101;49.038;8.710;2022-09-01T14:01:48;2.97;;;1.85;;
10122;SDS011;5101;49.038;8.710;2022-09-01T14:04:14;2.20;;;2.10;;
10122;SDS011;5101;49.038;8.710;2022-09-01T14:06:40;2.60;;;1.70;;
10122;SDS011;5101;49.038;8.710;2022-09-01T14:09:08;2.20;;;1.67;;
10122;SDS011;5101;49.038;8.710;2022-09-01T14:11:34;2.13;;;1.88;;
10122;SDS011;5101;49.038;8.710;2022-09-01T14:14:00;2.05;;;1.90;;
10122;SDS011;5101;49.038;8.710;2022-09-01T14:16:27;1.70;;;1.70;;
10122;SDS011;5101;49.038;8.710;2022-09-01T14:18:52;1.90;;;1.80;;
10122;SDS011;5101;49.038;8.710;2022-09-01T14:21:18;2.03;;;1.80;;
10122;SDS011;5101;49.038;8.710;2022-09-01T14:23:43;1.70;;;1.60;;
10122;SDS011;5101;49.038;8.710;2022-09-01T14:26:10;2.03;;;1.92;;
10122;SDS011;5101;49.038;8.710;2022-09-01T14:28:38;1.92;;;1.83;;
10122;SDS011;5101;49.038;8.710;2022-09-01T14:31:08;2.40;;;1.95;;
10122;SDS011;5101;49.038;8.710;2022-09-01T14:33:35;1.95;;;1.85;;
10122;SDS011;5101;49.038;8.710;2022-09-01T14:36:01;1.77;;;1.67;;
10122;SDS011;5101;49.038;8.710;2022-09-01T14:38:28;2.10;;;1.85;;
10122;SDS011;5101;49.038;8.710;2022-09-01T14:40:54;2.20;;;2.10;;
10122;SDS011;5101;49.038;8.710;2022-09-01T14:43:20;1.85;;;1.75;;
10122;SDS011;5101;49.038;8.710;2022-09-01T14:45:46;1.50;;;1.50;;
10122;SDS011;5101;49.038;8.710;2022-09-01T14:48:12;1.77;;;1.67;;
10122;SDS011;5101;49.038;8.710;2022-09-01T14:50:40;1.83;;;1.73;;
10122;SDS011;5101;49.038;8.710;2022-09-01T14:53:08;2.20;;;1.50;;
10122;SDS011;5101;49.038;8.710;2022-09-01T14:55:34;1.90;;;1.60;;
10122;SDS011;5101;49.038;8.710;2022-09-01T14:58:00;2.22;;;1.60;;
10122;SDS011;5101;49.038;8.710;2022-09-01T15:00:26;3.67;;;1.80;;
10122;SDS011;5101;49.038;8.710;2022-09-01T15:02:53;2.05;;;1.70;;
10122;SDS011;5101;49.038;8.710;2022-09-01T15:05:19;1.50;;;1.50;;
10122;SDS011;5101;49.038;8.710;2022-09-01T15:07:45;1.48;;;1.33;;
10122;SDS011;5101;49.038;8.710;2022-09-01T15:10:12;1.92;;;1.65;;
10122;SDS011;5101;49.038;8.710;2022-09-01T15:12:39;1.65;;;1.55;;
10122;SDS011;5101;49.038;8.710;2022-09-01T15:15:06;1.90;;;1.70;;
10122;SDS011;5101;49.038;8.710;2022-09-01T15:17:32;1.95;;;1.85;;
10122;SDS011;5101;49.038;8.710;2022-09-01T15:19:59;1.65;;;1.55;;
10122;SDS011;5101;49.038;8.710;2022-09-01T15:22:46;3.35;;;1.60;;
10122;SDS011;5101;49.038;8.710;2022-09-01T15:25:12;1.90;;;1.80;;
10122;SDS011;5101;49.038;8.710;2022-09-01T15:27:38;1.67;;;1.58;;
10122;SDS011;5101;49.038;8.710;2022-09-01T15:30:04;1.45;;;1.45;;
10122;SDS011;5101;49.038;8.710;2022-09-01T15:32:37;2.20;;;1.60;;
10122;SDS011;5101;49.038;8.710;2022-09-01T15:35:02;1.45;;;1.35;;
10122;SDS011;5101;49.038;8.710;2022-09-01T15:37:28;1.80;;;1.70;;
10122;SDS011;5101;49.038;8.710;2022-09-01T15:39:53;1.70;;;1.60;;
10122;SDS011;5101;49.038;8.710;2022-09-01T15:42:19;1.70;;;1.60;;
10122;SDS011;5101;49.038;8.710;2022-09-01T15:44:45;3.15;;;1.63;;
10122;SDS011;5101;49.038;8.710;2022-09-01T15:47:11;1.77;;;1.67;;
10122;SDS011;5101;49.038;8.710;2022-09-01T15:49:36;1.67;;;1.58;;
10122;SDS011;5101;49.038;8.710;2022-09-01T15:52:02;2.40;;;2.20;;
10122;SDS011;5101;49.038;8.710;2022-09-01T15:54:27;2.10;;;1.83;;
10122;SDS011;5101;49.038;8.710;2022-09-01T15:56:53;2.30;;;1.95;;
10122;SDS011;5101;49.038;8.710;2022-09-01T15:59:18;1.90;;;1.80;;
10122;SDS011;5101;49.038;8.710;2022-09-01T16:01:45;3.72;;;1.80;;
10122;SDS011;5101;49.038;8.710;2022-09-01T16:04:12;2.53;;;1.60;;
10122;SDS011;5101;49.038;8.710;2022-09-01T16:06:39;1.45;;;1.35;;
10122;SDS011;5101;49.038;8.710;2022-09-01T16:09:06;2.63;;;1.40;;
10122;SDS011;5101;49.038;8.710;2022-09-01T16:11:32;3.55;;;1.48;;
10122;SDS011;5101;49.038;8.710;2022-09-01T16:14:00;1.67;;;1.58;;
10122;SDS011;5101;49.038;8.710;2022-09-01T16:16:34;1.48;;;1.40;;
10122;SDS011;5101;49.038;8.710;2022-09-01T16:19:23;3.17;;;1.42;;
10122;SDS011;5101;49.038;8.710;2022-09-01T16:22:09;1.67;;;1.58;;